»·PEaware :: N47DT ksmx-kbfl

N47DT :: ksmx-kbfl

FLIGHT INFORMATION

Flight Status: Arrived
Operator: Privately registered:
United States
More flights under this callsign
Pilot: Wayne C. (13792)
Aircraft: CESSNA 172 SKYHAWK
(C172)
More flights by this aircraft type
Origin: ksmx Santa Maria Pub/Capt Hancock
United States
Destination: kbfl Meadows
United States
More flights between these airports :: More routes between these airports
Route: +FLW
File this flight plan on PilotEdge
Remarks: cat-05
Altitude:
(Current/Filed)
4,500ft
Speed:
(Current/Filed)
115kts
Departed: 07-Jan-17 09:38 PM
Arrived: 07-Jan-17 10:23 PM
Distance/Time
Traveled:
76nm/0:45
Distance/Time
To Go:
Arrived

Flight Plot

Page will automatically refresh every two minutes.


Map Options




Map Legend


Flown Route
Filed Route
Departure Airport
Arrival Airport
Navaid (VOR, NDB)
Fix

Horizontal Profiles

Position Reports

Time Latitude Longitude Heading Altitude Ground
Speed
07-Jan-17 21:28 34.898859 -120.448102 318 245ft 0kts
07-Jan-17 21:29 34.898878 -120.448128 298 245ft 0kts
07-Jan-17 21:30 34.898885 -120.448167 275 245ft 0kts
07-Jan-17 21:31 34.898885 -120.448167 275 245ft 0kts
07-Jan-17 21:32 34.898885 -120.448167 275 245ft 0kts
07-Jan-17 21:33 34.898885 -120.448167 275 245ft 0kts
07-Jan-17 21:34 34.898885 -120.448167 275 245ft 0kts
07-Jan-17 21:35 34.897462 -120.448938 136 246ft 18kts
07-Jan-17 21:36 34.894279 -120.445694 173 256ft 0kts
07-Jan-17 21:37 34.894279 -120.445694 173 256ft 0kts
07-Jan-17 21:38 34.900264 -120.453864 323 573ft 79kts
07-Jan-17 21:39 34.922052 -120.460215 36 1814ft 87kts
07-Jan-17 21:40 34.926658 -120.433767 97 3038ft 79kts
07-Jan-17 21:41 34.940517 -120.402379 50 3548ft 123kts
07-Jan-17 21:42 34.968630 -120.375389 68 3898ft 125kts
07-Jan-17 21:43 34.973418 -120.334419 117 3867ft 133kts
07-Jan-17 21:44 34.959731 -120.292384 102 3639ft 139kts
07-Jan-17 21:45 34.963417 -120.248693 76 3789ft 139kts
07-Jan-17 21:46 34.977564 -120.204850 73 3499ft 145kts
07-Jan-17 21:47 34.993220 -120.164102 51 3250ft 165kts
07-Jan-17 21:48 35.023141 -120.138067 32 3890ft 122kts
07-Jan-17 21:49 35.053580 -120.128425 67 4332ft 104kts
07-Jan-17 21:50 35.054748 -120.091303 95 4408ft 104kts
07-Jan-17 21:51 35.063278 -120.053807 82 4456ft 103kts
07-Jan-17 21:52 35.066844 -120.020943 106 4577ft 125kts
07-Jan-17 21:53 35.061427 -119.985821 84 5027ft 103kts
07-Jan-17 21:54 35.072700 -119.949912 73 4954ft 119kts
07-Jan-17 21:55 35.087079 -119.918162 64 5454ft 99kts
07-Jan-17 21:56 35.100168 -119.881844 69 5157ft 119kts
07-Jan-17 21:57 35.113440 -119.845554 72 5062ft 117kts
07-Jan-17 21:58 35.132184 -119.808284 52 4405ft 130kts
07-Jan-17 21:59 35.146536 -119.772794 71 4423ft 118kts
07-Jan-17 22:00 35.160699 -119.737804 67 4483ft 126kts
07-Jan-17 22:01 35.179203 -119.703733 59 4448ft 120kts
07-Jan-17 22:02 35.199644 -119.672113 63 4410ft 113kts
07-Jan-17 22:03 35.213360 -119.637894 73 4246ft 126kts
07-Jan-17 22:04 35.224710 -119.593634 78 2781ft 135kts
07-Jan-17 22:05 35.230537 -119.552439 86 2308ft 113kts
07-Jan-17 22:06 35.234071 -119.515722 74 2288ft 114kts
07-Jan-17 22:07 35.247680 -119.485143 51 2596ft 107kts
07-Jan-17 22:08 35.269338 -119.460516 45 2688ft 112kts
07-Jan-17 22:09 35.284004 -119.427245 66 2509ft 116kts
07-Jan-17 22:10 35.298122 -119.393245 64 2440ft 111kts
07-Jan-17 22:11 35.311216 -119.358494 66 2349ft 106kts
07-Jan-17 22:12 35.323898 -119.326911 69 2420ft 101kts
07-Jan-17 22:13 35.336647 -119.296867 60 2512ft 110kts
07-Jan-17 22:14 35.354271 -119.268096 57 2588ft 111kts
07-Jan-17 22:15 35.368691 -119.234695 68 2523ft 103kts
07-Jan-17 22:16 35.377120 -119.204707 79 2435ft 90kts
07-Jan-17 22:17 35.385302 -119.176727 60 2418ft 93kts
07-Jan-17 22:18 35.399310 -119.149324 46 2298ft 97kts
07-Jan-17 22:19 35.412059 -119.122472 74 2261ft 86kts
07-Jan-17 22:20 35.427331 -119.100798 23 1932ft 102kts
07-Jan-17 22:21 35.448663 -119.084935 94 1464ft 99kts
07-Jan-17 22:22 35.438030 -119.064982 127 513ft 53kts
07-Jan-17 22:23 35.434664 -119.060286 64 483ft 4kts
07-Jan-17 22:24 35.434759 -119.060098 64 484ft 0kts
07-Jan-17 22:25 35.435168 -119.059573 50 486ft 5kts
07-Jan-17 22:26 35.434867 -119.055254 134 491ft 27kts

Navigation Log

Ident Type
Flight plan parsing failed, navigation log unavailable